createdAt,value
2022-08-18T02:09:38.186Z,100250.63
2022-08-18T02:12:08.257Z,100248.91
2022-08-18T02:14:37.308Z,100255.13
2022-08-18T02:17:09.207Z,100259.66
2022-08-18T02:19:41.218Z,100258.88
2022-08-18T02:22:12.573Z,100257.30
2022-08-18T02:24:43.927Z,100254.89
2022-08-18T02:27:17.395Z,100256.84
2022-08-18T02:29:46.621Z,100258.69
2022-08-18T02:32:16.836Z,100258.78
2022-08-18T02:34:46.122Z,100253.55
2022-08-18T02:37:15.692Z,100256.36
2022-08-18T02:39:46.247Z,100252.94
2022-08-18T02:43:55.817Z,100249.42
2022-08-18T02:52:52.195Z,100255.23
2022-08-18T02:55:24.325Z,100256.16
2022-08-18T02:58:07.139Z,100256.25
2022-08-18T03:00:35.937Z,100261.45
2022-08-18T03:03:05.358Z,100256.25
2022-08-18T03:05:34.338Z,100256.30
2022-08-18T03:08:03.533Z,100251.95
2022-08-18T03:10:38.653Z,100260.80
2022-08-18T03:13:07.173Z,100249.30
2022-08-18T03:15:35.720Z,100243.19
2022-08-18T03:18:04.661Z,100252.82
2022-08-18T03:20:35.769Z,100249.25
2022-08-18T03:23:10.092Z,100254.45
2022-08-18T03:25:43.171Z,100261.45
2022-08-18T03:28:12.121Z,100258.80
2022-08-18T03:30:40.968Z,100262.23
2022-08-18T03:33:10.252Z,100262.16
2022-08-18T03:35:41.044Z,100262.94
2022-08-18T03:38:09.678Z,100264.70
2022-08-18T03:40:38.196Z,100266.59
2022-08-18T03:43:23.937Z,100266.64
2022-08-18T03:45:55.780Z,100269.28
2022-08-18T03:48:24.848Z,100262.29
2022-08-18T03:50:53.382Z,100259.65
2022-08-18T03:53:21.994Z,100261.36
2022-08-18T03:55:50.551Z,100264.70
2022-08-18T03:58:19.073Z,100266.28
2022-08-18T04:00:47.660Z,100267.86
2022-08-18T04:03:16.200Z,100264.20
2022-08-18T04:05:44.903Z,100265.78
2022-08-18T04:08:13.377Z,100265.55
2022-08-18T04:10:44.562Z,100263.61
2022-08-18T04:13:13.238Z,100266.86
2022-08-18T04:15:41.891Z,100262.22
2022-08-18T04:18:11.290Z,100267.27
2022-08-18T04:20:59.064Z,100259.90
2022-08-18T04:26:50.263Z,100260.84
2022-08-18T04:29:34.447Z,100255.35
2022-08-18T04:32:20.816Z,100262.87
2022-08-18T04:35:16.201Z,100270.56
2022-08-18T04:37:49.310Z,100276.34
2022-08-18T04:40:24.349Z,100279.44
2022-08-18T04:43:15.356Z,100287.67
2022-08-18T04:45:47.682Z,100282.58
2022-08-18T04:48:17.300Z,100288.94
2022-08-18T04:50:46.798Z,100294.51
2022-08-18T04:53:34.342Z,100283.41
2022-08-18T04:56:05.061Z,100283.72
2022-08-18T04:58:35.499Z,100288.59
2022-08-18T05:01:40.625Z,100279.13
2022-08-18T05:04:18.801Z,100274.77
2022-08-18T05:06:48.219Z,100283.80
2022-08-18T05:09:23.154Z,100277.23
2022-08-18T05:11:52.680Z,100286.94
2022-08-18T05:18:13.913Z,100287.72
2022-08-18T05:20:45.424Z,100279.04
2022-08-18T05:23:16.508Z,100280.99
2022-08-18T05:25:45.191Z,100282.86
2022-08-18T05:28:14.087Z,100285.45
2022-08-18T05:30:43.683Z,100277.41
2022-08-18T05:33:12.330Z,100275.86
2022-08-18T05:35:47.645Z,100282.36
2022-08-18T05:38:39.407Z,100277.57
2022-08-18T05:41:14.091Z,100282.46
2022-08-18T05:43:51.466Z,100282.20
2022-08-18T05:46:34.901Z,100288.63
2022-08-18T05:49:06.147Z,100290.02
2022-08-18T05:52:18.150Z,100285.30
2022-08-18T05:55:14.265Z,100282.84
2022-08-18T05:57:56.763Z,100283.52
2022-08-18T06:00:28.563Z,100287.22
2022-08-18T06:03:10.214Z,100284.08
2022-08-18T06:05:49.641Z,100285.42
2022-08-18T06:08:22.004Z,100289.36
2022-08-18T06:10:51.611Z,100289.39
2022-08-18T06:13:21.474Z,100285.56
2022-08-18T06:15:59.877Z,100288.69
2022-08-18T06:18:49.565Z,100283.57
2022-08-18T06:21:39.114Z,100294.44
2022-08-18T06:24:15.881Z,100294.66
2022-08-18T06:26:55.527Z,100292.95
2022-08-18T06:29:37.567Z,100292.95
2022-08-18T06:32:29.956Z,100291.77
2022-08-18T06:35:10.352Z,100286.53
2022-08-18T06:38:07.134Z,100291.77
2022-08-18T06:40:36.202Z,100293.36
2022-08-18T06:43:06.909Z,100294.86
2022-08-18T06:45:40.094Z,100292.73
2022-08-18T06:48:18.117Z,100295.80
2022-08-18T06:50:51.936Z,100295.81
2022-08-18T06:53:26.987Z,100291.07
2022-08-18T06:55:56.873Z,100297.37
2022-08-18T06:58:34.693Z,100297.59
2022-08-18T07:01:07.604Z,100304.93
2022-08-18T07:03:45.845Z,100309.17
2022-08-18T07:06:29.187Z,100302.88
2022-08-18T07:09:20.025Z,100308.08
2022-08-18T07:12:07.409Z,100303.84
2022-08-18T07:14:45.015Z,100307.25
2022-08-18T07:17:21.988Z,100312.02
2022-08-18T07:20:05.670Z,100312.66
2022-08-18T07:22:51.925Z,100315.45
2022-08-18T07:25:24.857Z,100312.43
2022-08-18T07:27:56.222Z,100315.67
2022-08-18T07:30:35.343Z,100313.98
2022-08-18T07:33:15.157Z,100304.99
2022-08-18T07:35:48.849Z,100302.32
2022-08-18T07:38:42.042Z,100301.22
2022-08-18T07:41:19.701Z,100289.09
2022-08-18T07:44:00.223Z,100291.87
2022-08-18T07:46:35.377Z,100300.38
2022-08-18T07:49:06.509Z,100290.42
2022-08-18T07:51:46.541Z,100301.95
2022-08-18T07:57:24.992Z,100302.67
2022-08-18T08:00:05.337Z,100299.14
2022-08-18T08:02:55.090Z,100301.80
2022-08-18T08:05:40.119Z,100301.17
2022-08-18T08:08:25.417Z,100307.84
2022-08-18T08:11:06.216Z,100311.59
2022-08-18T08:13:55.863Z,100314.73
2022-08-18T08:16:37.534Z,100316.33
2022-08-18T08:19:42.658Z,100316.53
2022-08-18T08:22:16.912Z,100320.13
2022-08-18T08:24:59.595Z,100315.51
2022-08-18T08:27:41.916Z,100318.41
2022-08-18T08:30:14.189Z,100314.85
2022-08-18T08:32:56.692Z,100317.97
2022-08-18T08:35:48.786Z,100316.49
2022-08-18T08:38:42.632Z,100324.83
2022-08-18T08:41:19.457Z,100334.38
2022-08-18T08:43:54.926Z,100326.13
2022-08-18T08:46:29.617Z,100325.28
2022-08-18T08:49:07.494Z,100323.59
2022-08-18T08:51:40.081Z,100319.47
2022-08-18T08:54:17.501Z,100329.42
2022-08-18T08:56:50.082Z,100312.89
2022-08-18T08:59:21.600Z,100309.03
2022-08-18T09:02:04.866Z,100307.63
2022-08-18T09:04:54.126Z,100307.57
2022-08-18T09:07:54.323Z,100296.48
2022-08-18T09:10:39.144Z,100297.08
2022-08-18T09:13:35.431Z,100291.78
2022-08-18T09:16:15.731Z,100298.95
2022-08-18T09:18:59.541Z,100293.31
2022-08-18T09:24:59.374Z,100287.06
2022-08-18T09:28:09.828Z,100286.05
2022-08-18T09:30:55.842Z,100279.92
2022-08-18T09:33:33.653Z,100275.48
2022-08-18T09:36:21.794Z,100285.25
2022-08-18T09:39:18.557Z,100279.65
2022-08-18T09:41:53.052Z,100282.64
2022-08-18T09:44:58.181Z,100283.37
2022-08-18T09:47:59.044Z,100282.49
2022-08-18T09:50:53.733Z,100278.98
2022-08-18T09:54:09.395Z,100278.34
2022-08-18T09:57:19.553Z,100282.96
2022-08-18T10:00:14.880Z,100280.05
2022-08-18T10:03:25.790Z,100281.58
2022-08-18T10:06:17.702Z,100279.38
2022-08-18T10:09:18.178Z,100283.88
2022-08-18T10:12:20.291Z,100283.67
2022-08-18T10:15:33.093Z,100273.89
2022-08-18T10:18:26.304Z,100278.92
2022-08-18T10:21:07.790Z,100282.53
2022-08-18T10:24:14.743Z,100275.11
2022-08-18T10:27:14.577Z,100280.23
2022-08-18T10:29:52.867Z,100282.86
2022-08-18T10:32:52.093Z,100288.95
2022-08-18T10:36:04.667Z,100293.83
2022-08-18T10:41:43.466Z,100295.89
2022-08-18T10:44:28.741Z,100287.84
2022-08-18T10:47:00.576Z,100298.20
2022-08-18T10:49:32.593Z,100298.13
2022-08-18T10:52:45.261Z,100295.81
2022-08-18T11:02:28.527Z,100298.56
2022-08-18T11:05:14.722Z,100298.30
2022-08-18T11:07:48.655Z,100302.16
2022-08-18T11:11:34.296Z,100300.77
2022-08-18T11:14:06.745Z,100293.09
2022-08-18T11:17:31.054Z,100296.16
2022-08-18T11:20:19.842Z,100280.16
2022-08-18T11:22:55.283Z,100291.09
2022-08-18T11:25:56.149Z,100278.09
2022-08-18T11:29:00.861Z,100277.98
2022-08-18T11:31:44.496Z,100272.39
2022-08-18T11:34:30.871Z,100262.77
2022-08-18T11:37:02.313Z,100255.28
2022-08-18T11:39:55.893Z,100252.11
2022-08-18T11:42:41.201Z,100253.05
2022-08-18T11:45:17.387Z,100255.59
2022-08-18T11:48:51.849Z,100246.68
2022-08-18T11:51:40.178Z,100249.97
2022-08-18T11:54:24.691Z,100245.67
2022-08-18T11:57:31.480Z,100244.53
2022-08-18T12:00:24.049Z,100248.17
2022-08-18T12:06:31.434Z,100248.03
2022-08-18T12:09:05.894Z,100242.88
2022-08-18T12:11:53.703Z,100232.21
2022-08-18T12:14:30.466Z,100230.09
2022-08-18T12:17:01.872Z,100222.08
2022-08-18T12:19:30.804Z,100230.52
2022-08-18T12:22:00.463Z,100226.59
2022-08-18T12:24:36.871Z,100226.09
2022-08-18T12:29:58.628Z,100230.72
2022-08-18T12:32:46.580Z,100228.67
2022-08-18T12:35:22.136Z,100222.59
2022-08-18T12:38:03.602Z,100223.06
2022-08-18T12:40:42.343Z,100234.91
2022-08-18T12:43:13.134Z,100223.59
2022-08-18T12:45:46.007Z,100224.61
2022-08-18T12:48:14.835Z,100220.70
2022-08-18T12:54:04.785Z,100210.64
2022-08-18T12:56:43.365Z,100213.08
2022-08-18T12:59:12.137Z,100217.80
2022-08-18T13:01:41.362Z,100215.63
2022-08-18T13:04:15.455Z,100216.84
2022-08-18T13:07:00.216Z,100217.48
2022-08-18T13:09:42.819Z,100222.66
2022-08-18T13:12:20.883Z,100215.55
2022-08-18T13:14:50.860Z,100210.64
2022-08-18T13:17:33.124Z,100202.97
2022-08-18T13:20:06.017Z,100203.75
2022-08-18T13:22:34.639Z,100205.56
2022-08-18T13:25:06.705Z,100202.84
2022-08-18T13:27:37.331Z,100198.34
2022-08-18T13:30:30.081Z,100195.05
2022-08-18T13:33:05.186Z,100184.00
2022-08-18T13:35:52.453Z,100187.07
2022-08-18T13:38:25.757Z,100186.93
2022-08-18T13:40:58.115Z,100183.73
2022-08-18T13:43:32.166Z,100182.72
2022-08-18T13:46:01.100Z,100186.09
2022-08-18T13:48:30.870Z,100177.83
2022-08-18T13:51:02.014Z,100167.86
2022-08-18T13:53:31.820Z,100181.71
2022-08-18T13:56:00.620Z,100172.43
2022-08-18T13:58:29.320Z,100178.66
2022-08-18T14:03:49.997Z,100176.78
2022-08-18T14:06:22.988Z,100177.80
2022-08-18T14:08:53.931Z,100166.86
2022-08-18T14:11:27.998Z,100170.20
2022-08-18T14:14:02.198Z,100168.83
2022-08-18T14:16:32.410Z,100170.51
2022-08-18T14:19:22.833Z,100167.98
2022-08-18T14:22:12.429Z,100163.71
2022-08-18T14:25:00.716Z,100170.11
2022-08-18T14:27:34.906Z,100169.59
2022-08-18T14:30:07.478Z,100175.28
2022-08-18T14:32:36.643Z,100174.56
2022-08-18T14:35:33.598Z,100171.01
2022-08-18T14:38:06.367Z,100171.55
2022-08-18T14:40:41.882Z,100172.21
2022-08-18T14:43:14.215Z,100181.84
2022-08-18T14:45:47.307Z,100182.50
2022-08-18T14:48:21.002Z,100174.08
2022-08-18T14:50:55.006Z,100169.86
2022-08-18T14:53:28.170Z,100169.00
2022-08-18T14:55:59.227Z,100186.66
2022-08-18T14:58:30.898Z,100187.84
2022-08-18T15:01:08.454Z,100188.67
2022-08-18T15:03:40.607Z,100194.55
2022-08-18T15:06:10.108Z,100186.13
2022-08-18T15:08:47.016Z,100195.14
2022-08-18T15:11:16.395Z,100194.76
2022-08-18T15:13:45.954Z,100197.41
2022-08-18T15:16:16.131Z,100196.81
2022-08-18T15:18:46.399Z,100197.16
2022-08-18T15:21:38.698Z,100199.63
2022-08-18T15:24:26.758Z,100193.50
2022-08-18T15:26:58.071Z,100186.64
2022-08-18T15:29:29.477Z,100181.86
2022-08-18T15:32:05.656Z,100172.43
2022-08-18T15:34:47.166Z,100176.42
2022-08-18T15:37:22.296Z,100171.67
2022-08-18T15:39:59.715Z,100173.27
2022-08-18T15:42:29.234Z,100171.52
2022-08-18T15:45:11.793Z,100178.20
2022-08-18T15:47:42.548Z,100176.83
2022-08-18T15:50:21.777Z,100171.75
2022-08-18T15:52:57.449Z,100160.75
2022-08-18T15:55:35.957Z,100162.87
2022-08-18T15:58:11.008Z,100156.56
2022-08-18T16:00:45.562Z,100145.44
2022-08-18T16:03:16.527Z,100144.73
2022-08-18T16:05:51.579Z,100136.27
2022-08-18T16:08:24.790Z,100138.71
2022-08-18T16:10:54.004Z,100141.73
2022-08-18T16:13:24.068Z,100143.88
2022-08-18T16:15:52.597Z,100148.02
2022-08-18T16:18:21.860Z,100145.45
2022-08-18T16:20:50.695Z,100144.09
2022-08-18T16:23:21.521Z,100150.74
2022-08-18T16:25:50.234Z,100151.90
2022-08-18T16:28:19.004Z,100153.19
2022-08-18T16:30:47.987Z,100159.80
2022-08-18T16:33:16.565Z,100161.95
2022-08-18T16:35:47.119Z,100166.78
2022-08-18T16:38:15.669Z,100167.22
2022-08-18T16:40:44.183Z,100163.29
2022-08-18T16:43:14.322Z,100168.24
2022-08-18T16:45:42.961Z,100170.54
2022-08-18T16:48:16.323Z,100171.97
2022-08-18T16:50:45.860Z,100179.92
2022-08-18T16:53:14.379Z,100174.12
2022-08-18T16:55:44.173Z,100174.56
2022-08-18T16:58:31.514Z,100179.38
2022-08-18T17:01:18.908Z,100173.00
2022-08-18T17:04:14.814Z,100172.45
2022-08-18T17:06:50.682Z,100169.52
2022-08-18T17:09:20.591Z,100173.33
2022-08-18T17:11:51.341Z,100170.08
2022-08-18T17:14:21.860Z,100174.71
2022-08-18T17:16:53.774Z,100174.95
2022-08-18T17:19:23.434Z,100175.95
2022-08-18T17:21:52.147Z,100175.91
2022-08-18T17:24:31.812Z,100171.91
2022-08-18T17:27:11.859Z,100173.97
2022-08-18T17:30:02.925Z,100175.16
2022-08-18T17:32:42.069Z,100167.52
2022-08-18T17:35:14.710Z,100168.69
2022-08-18T17:37:51.666Z,100166.81
2022-08-18T17:40:28.470Z,100162.37
2022-08-18T17:42:59.632Z,100166.92
2022-08-18T17:45:35.616Z,100167.13
2022-08-18T17:48:11.458Z,100170.70
2022-08-18T17:51:02.389Z,100183.42
2022-08-18T17:53:33.199Z,100189.65
2022-08-18T17:56:07.618Z,100183.20
2022-08-18T17:58:40.336Z,100186.88
2022-08-18T18:01:11.410Z,100174.41
2022-08-18T18:03:42.486Z,100171.76
2022-08-18T18:06:18.760Z,100168.23
2022-08-18T18:08:58.604Z,100158.30
2022-08-18T18:11:31.584Z,100148.47
2022-08-18T18:14:23.479Z,100155.52
2022-08-18T18:17:06.910Z,100157.33
2022-08-18T18:19:36.108Z,100162.56
2022-08-18T18:22:09.789Z,100162.28
2022-08-18T18:24:47.506Z,100164.58
2022-08-18T18:27:27.505Z,100164.47
2022-08-18T18:30:02.037Z,100158.98
2022-08-18T18:32:34.772Z,100156.13
2022-08-18T18:35:11.237Z,100159.41
2022-08-18T18:37:49.448Z,100155.61
2022-08-18T18:40:28.470Z,100149.89
2022-08-18T18:42:58.442Z,100148.67
2022-08-18T18:45:30.342Z,100152.74
2022-08-18T18:48:06.156Z,100158.55
2022-08-18T18:50:52.788Z,100155.36
2022-08-18T18:53:35.633Z,100158.63
2022-08-18T18:56:13.782Z,100152.98
2022-08-18T18:58:55.096Z,100157.89
2022-08-18T19:01:32.581Z,100166.22
2022-08-18T19:04:12.004Z,100183.29
2022-08-18T19:06:51.224Z,100198.53
2022-08-18T19:09:27.640Z,100197.07
2022-08-18T19:12:08.361Z,100199.20
2022-08-18T19:14:41.859Z,100197.83
2022-08-18T19:17:18.249Z,100209.66
2022-08-18T19:19:50.993Z,100216.06
2022-08-18T19:22:24.161Z,100219.80
2022-08-18T19:24:59.655Z,100222.80
2022-08-18T19:27:35.144Z,100229.28
2022-08-18T19:30:11.882Z,100238.56
2022-08-18T19:32:44.290Z,100233.77
2022-08-18T19:35:19.518Z,100234.21
2022-08-18T19:38:14.002Z,100237.28
2022-08-18T19:40:46.488Z,100238.64
2022-08-18T19:43:27.031Z,100243.53
2022-08-18T19:46:05.554Z,100236.83
2022-08-18T19:48:43.728Z,100235.44
2022-08-18T19:51:19.213Z,100227.66
2022-08-18T19:54:05.186Z,100224.36
2022-08-18T19:56:52.608Z,100216.81
2022-08-18T19:59:45.459Z,100224.88
2022-08-18T20:02:32.287Z,100220.83
2022-08-18T20:05:15.412Z,100206.05
2022-08-18T20:08:14.756Z,100214.22
2022-08-18T20:11:07.549Z,100214.34
2022-08-18T20:13:43.113Z,100216.05
2022-08-18T20:16:35.572Z,100217.75
2022-08-18T20:19:43.268Z,100217.52
2022-08-18T20:22:28.052Z,100222.00
2022-08-18T20:25:05.763Z,100219.34
2022-08-18T20:27:38.430Z,100228.28
2022-08-18T20:30:32.481Z,100232.73
2022-08-18T20:33:30.902Z,100227.41
2022-08-18T20:36:17.088Z,100224.02
2022-08-18T20:38:47.763Z,100225.06
2022-08-18T20:41:32.810Z,100223.58
2022-08-18T20:44:29.423Z,100219.41
2022-08-18T20:47:11.208Z,100216.11
2022-08-18T20:49:49.764Z,100211.94
2022-08-18T20:52:29.561Z,100217.38
2022-08-18T20:55:11.603Z,100214.83
2022-08-18T20:57:42.952Z,100211.41
2022-08-18T21:00:16.283Z,100207.05
2022-08-18T21:02:58.354Z,100206.18
2022-08-18T21:05:32.645Z,100202.69
2022-08-18T21:08:07.096Z,100201.73
2022-08-18T21:10:35.629Z,100208.84
2022-08-18T21:13:05.454Z,100202.77
2022-08-18T21:15:37.755Z,100204.55
2022-08-18T21:18:15.559Z,100201.37
2022-08-18T21:20:46.516Z,100191.88
2022-08-18T21:23:21.806Z,100195.69
2022-08-18T21:25:53.483Z,100187.26
2022-08-18T21:28:25.351Z,100175.98
2022-08-18T21:31:41.927Z,100169.08
2022-08-18T21:33:51.997Z,100163.00
2022-08-18T21:36:22.816Z,100155.98
2022-08-18T21:39:06.222Z,100149.08
2022-08-18T21:41:39.673Z,100146.53
2022-08-18T21:44:14.500Z,100144.70
2022-08-18T21:46:45.524Z,100140.16
2022-08-18T21:49:24.555Z,100145.27
2022-08-18T21:51:53.262Z,100159.28
2022-08-18T21:54:28.000Z,100165.27
2022-08-18T21:57:19.113Z,100175.68
2022-08-18T22:00:18.071Z,100175.68
2022-08-18T22:02:51.420Z,100172.07
2022-08-18T22:05:58.752Z,100167.70
2022-08-18T22:08:23.409Z,100166.22
2022-08-18T22:11:57.234Z,100157.61
2022-08-18T22:14:28.950Z,100156.28
2022-08-18T22:17:30.860Z,100153.18
2022-08-18T22:20:33.812Z,100150.18
2022-08-18T22:23:26.269Z,100147.06
2022-08-18T22:26:06.810Z,100145.55
2022-08-18T22:28:41.544Z,100145.55
2022-08-18T22:31:10.398Z,100142.05
2022-08-18T22:33:39.003Z,100142.05
2022-08-18T22:36:08.950Z,100145.55
2022-08-18T22:38:37.515Z,100138.56
2022-08-18T22:41:06.102Z,100144.83
2022-08-18T22:43:36.962Z,100131.63
2022-08-18T22:46:06.190Z,100134.39
2022-08-18T22:48:34.925Z,100135.45
2022-08-18T22:51:04.092Z,100132.98
2022-08-18T22:53:46.041Z,100136.78
2022-08-18T22:56:14.649Z,100143.14
2022-08-18T22:58:51.346Z,100139.73
2022-08-18T23:01:20.606Z,100142.46
2022-08-18T23:03:49.167Z,100148.72
2022-08-18T23:06:18.077Z,100140.94
2022-08-18T23:08:54.716Z,100139.23
2022-08-18T23:11:25.431Z,100149.96
2022-08-18T23:13:54.375Z,100152.73
2022-08-18T23:16:31.168Z,100158.11
2022-08-18T23:19:02.219Z,100156.70
2022-08-18T23:21:35.038Z,100157.86
2022-08-18T23:24:07.411Z,100174.91
2022-08-18T23:26:36.156Z,100170.73
2022-08-18T23:29:11.233Z,100172.73
2022-08-18T23:31:47.097Z,100179.09
2022-08-18T23:34:22.986Z,100180.04
2022-08-18T23:37:00.746Z,100178.33
2022-08-18T23:39:33.795Z,100176.73
2022-08-18T23:42:03.855Z,100179.45
2022-08-18T23:44:34.146Z,100176.14
2022-08-18T23:47:06.481Z,100176.53
2022-08-18T23:49:37.961Z,100175.95
2022-08-18T23:52:09.064Z,100164.86
2022-08-18T23:54:40.182Z,100166.95
2022-08-18T23:57:14.729Z,100166.47
2022-08-18T23:59:44.862Z,100160.50
